createdAt,value
2023-01-11T00:01:11.925Z,3.31
2023-01-11T00:06:33.775Z,3.07
2023-01-11T00:11:55.580Z,3.36
2023-01-11T00:17:17.372Z,3.41
2023-01-11T00:22:39.190Z,3.26
2023-01-11T00:28:01.061Z,3.17
2023-01-11T00:33:22.889Z,3.24
2023-01-11T00:38:44.708Z,3.33
2023-01-11T00:44:07.197Z,3.32
2023-01-11T00:49:29.542Z,3.43
2023-01-11T00:54:51.464Z,3.40
2023-01-11T01:00:13.708Z,3.57
2023-01-11T01:05:38.189Z,3.70
2023-01-11T01:11:00.031Z,3.71
2023-01-11T01:16:21.936Z,3.65
2023-01-11T01:21:43.919Z,3.73
2023-01-11T01:27:05.713Z,3.69
2023-01-11T01:32:27.607Z,3.67
2023-01-11T01:37:49.455Z,3.55
2023-01-11T01:43:12.887Z,3.35
2023-01-11T01:48:37.633Z,3.53
2023-01-11T01:54:04.732Z,3.44
2023-01-11T01:59:30.176Z,3.46
2023-01-11T02:04:54.472Z,3.61
2023-01-11T02:10:20.042Z,3.61
2023-01-11T02:15:41.899Z,3.70
2023-01-11T02:21:19.793Z,3.90
2023-01-11T02:26:56.472Z,3.70
2023-01-11T02:32:37.006Z,3.64
2023-01-11T02:38:04.094Z,3.58
2023-01-11T02:43:32.278Z,3.67
2023-01-11T02:49:26.698Z,3.82
2023-01-11T02:54:54.930Z,3.78
2023-01-11T03:00:19.165Z,3.89
2023-01-11T03:05:50.053Z,3.79
2023-01-11T03:11:38.115Z,3.50
2023-01-11T03:17:21.226Z,3.08
2023-01-11T03:22:52.096Z,3.46
2023-01-11T03:28:22.638Z,3.50
2023-01-11T03:33:56.287Z,3.52
2023-01-11T03:39:45.472Z,3.33
2023-01-11T03:45:07.877Z,3.12
2023-01-11T03:50:33.395Z,3.06
2023-01-11T03:55:57.715Z,2.99
2023-01-11T04:01:19.606Z,2.91
2023-01-11T04:06:41.482Z,2.94
2023-01-11T04:12:03.677Z,2.84
2023-01-11T04:17:25.509Z,2.70
2023-01-11T04:22:47.424Z,2.75
2023-01-11T04:28:09.329Z,2.72
2023-01-11T04:33:31.161Z,2.74
2023-01-11T04:38:52.993Z,2.71
2023-01-11T04:44:15.073Z,2.69
2023-01-11T04:49:36.906Z,2.82
2023-01-11T04:54:58.773Z,2.58
2023-01-11T05:00:20.892Z,2.64
2023-01-11T05:05:42.714Z,2.55
2023-01-11T05:11:07.751Z,2.57
2023-01-11T05:16:29.655Z,2.59
2023-01-11T05:21:51.511Z,2.54
2023-01-11T05:27:13.336Z,2.42
2023-01-11T05:32:35.183Z,2.52
2023-01-11T05:37:56.988Z,2.53
2023-01-11T05:43:18.817Z,2.40
2023-01-11T05:48:40.636Z,2.63
2023-01-11T05:54:05.075Z,2.54
2023-01-11T05:59:26.939Z,2.55
2023-01-11T06:04:48.812Z,2.39
2023-01-11T06:10:11.017Z,2.46
2023-01-11T06:15:32.816Z,2.38
2023-01-11T06:20:55.567Z,2.32
2023-01-11T06:26:20.292Z,2.42
2023-01-11T06:31:42.225Z,2.59
2023-01-11T06:37:04.089Z,2.51
2023-01-11T06:42:25.989Z,2.51
2023-01-11T06:47:48.009Z,2.55
2023-01-11T06:53:09.894Z,2.51
2023-01-11T06:58:31.751Z,2.55
2023-01-11T07:03:53.713Z,2.42
2023-01-11T07:09:15.643Z,2.36
2023-01-11T07:14:37.485Z,2.25
2023-01-11T07:19:59.478Z,2.30
2023-01-11T07:25:21.346Z,2.29
2023-01-11T07:30:59.899Z,2.29
2023-01-11T07:36:22.178Z,2.39
2023-01-11T07:41:44.047Z,2.42
2023-01-11T07:47:06.063Z,2.45
2023-01-11T07:52:27.934Z,2.39
2023-01-11T07:57:49.789Z,2.40
2023-01-11T08:03:11.881Z,2.39
2023-01-11T08:08:33.847Z,2.53
2023-01-11T08:13:55.749Z,2.41
2023-01-11T08:19:17.735Z,2.40
2023-01-11T08:24:39.891Z,2.17
2023-01-11T08:30:01.782Z,2.29
2023-01-11T08:35:25.580Z,2.58
2023-01-11T08:40:47.480Z,2.74
2023-01-11T08:46:10.348Z,2.69
2023-01-11T08:51:32.279Z,2.55
2023-01-11T08:56:55.389Z,2.57
2023-01-11T09:02:17.232Z,2.71
2023-01-11T09:07:39.095Z,2.76
2023-01-11T09:13:01.186Z,2.76
2023-01-11T09:18:23.084Z,2.78
2023-01-11T09:23:44.912Z,2.55
2023-01-11T09:29:07.252Z,2.60
2023-01-11T09:34:29.064Z,2.41
2023-01-11T09:39:50.896Z,2.64
2023-01-11T09:45:17.899Z,2.76
2023-01-11T09:50:44.599Z,2.77
2023-01-11T09:56:13.757Z,2.40
2023-01-11T10:02:18.061Z,2.47
2023-01-11T10:07:52.827Z,2.45
2023-01-11T10:19:39.393Z,2.54
2023-01-11T10:25:18.870Z,2.86
2023-01-11T10:30:47.598Z,2.82
2023-01-11T10:36:33.710Z,2.95
2023-01-11T10:42:10.773Z,2.41
2023-01-11T10:47:43.111Z,2.36
2023-01-11T10:53:12.495Z,2.64
2023-01-11T10:58:51.067Z,2.44
2023-01-11T11:04:24.874Z,2.73
2023-01-11T11:10:13.661Z,2.89
2023-01-11T11:15:46.678Z,2.66
2023-01-11T11:21:21.932Z,2.58
2023-01-11T11:26:49.425Z,2.61
2023-01-11T11:32:36.634Z,2.34
2023-01-11T11:37:58.954Z,2.67
2023-01-11T11:43:25.788Z,2.69
2023-01-11T11:49:16.596Z,2.66
2023-01-11T11:54:49.792Z,2.70
2023-01-11T12:00:22.658Z,2.22
2023-01-11T12:06:00.567Z,2.61
2023-01-11T12:11:40.793Z,2.63
2023-01-11T12:17:25.417Z,2.55
2023-01-11T12:22:48.434Z,2.44
2023-01-11T12:28:13.132Z,2.53
2023-01-11T12:33:43.961Z,2.63
2023-01-11T12:39:11.806Z,2.77
2023-01-11T12:45:02.802Z,2.59
2023-01-11T12:50:59.753Z,2.68
2023-01-11T12:56:33.561Z,2.60
2023-01-11T13:02:07.469Z,2.49
2023-01-11T13:07:29.280Z,2.57
2023-01-11T13:13:14.927Z,2.74
2023-01-11T13:18:44.651Z,2.57
2023-01-11T13:24:13.436Z,2.70
2023-01-11T13:29:39.891Z,2.87
2023-01-11T13:35:28.018Z,3.04
2023-01-11T13:40:54.612Z,2.51
2023-01-11T13:46:23.096Z,2.66
2023-01-11T13:52:10.002Z,2.66
2023-01-11T13:58:09.176Z,2.69
2023-01-11T14:03:41.263Z,2.52
2023-01-11T14:09:15.130Z,2.72
2023-01-11T14:15:06.228Z,2.77
2023-01-11T14:20:29.072Z,2.87
2023-01-11T14:26:25.378Z,2.94
2023-01-11T14:32:14.872Z,2.85
2023-01-11T14:38:09.025Z,2.97
2023-01-11T14:43:43.147Z,2.99
2023-01-11T14:49:33.012Z,3.02
2023-01-11T14:54:57.476Z,3.13
2023-01-11T15:00:19.294Z,3.31
2023-01-11T15:05:58.027Z,3.29
2023-01-11T15:11:39.948Z,3.24
2023-01-11T15:17:02.876Z,3.52
2023-01-11T15:22:33.313Z,3.45
2023-01-11T15:27:56.643Z,3.59
2023-01-11T15:33:18.576Z,3.60
2023-01-11T15:39:02.049Z,3.62
2023-01-11T15:44:48.507Z,3.67
2023-01-11T15:50:32.160Z,3.74
2023-01-11T15:56:28.357Z,3.59
2023-01-11T16:02:14.895Z,3.53
2023-01-11T16:07:57.054Z,3.70
2023-01-11T16:13:48.076Z,3.81
2023-01-11T16:19:18.337Z,3.56
2023-01-11T16:24:44.831Z,3.68
2023-01-11T16:30:07.385Z,3.48
2023-01-11T16:35:29.218Z,3.75
2023-01-11T16:40:54.055Z,3.80
2023-01-11T16:46:37.862Z,3.91
2023-01-11T16:52:00.438Z,3.97
2023-01-11T16:57:30.035Z,4.03
2023-01-11T17:03:25.299Z,4.11
2023-01-11T17:08:55.703Z,4.20
2023-01-11T17:14:23.593Z,4.17
2023-01-11T17:19:49.819Z,4.36
2023-01-11T17:25:29.590Z,4.36
2023-01-11T17:30:56.370Z,4.46
2023-01-11T17:36:18.312Z,4.47
2023-01-11T17:41:40.964Z,4.34
2023-01-11T17:47:07.092Z,4.46
2023-01-11T17:52:34.393Z,4.40
2023-01-11T17:58:20.570Z,4.34
2023-01-11T18:03:45.465Z,4.26
2023-01-11T18:09:20.347Z,4.30
2023-01-11T18:14:50.296Z,4.22
2023-01-11T18:20:15.352Z,4.43
2023-01-11T18:25:37.597Z,4.46
2023-01-11T18:31:00.756Z,4.44
2023-01-11T18:36:24.268Z,4.51
2023-01-11T18:41:46.147Z,4.45
2023-01-11T18:47:23.057Z,4.30
2023-01-11T18:52:44.954Z,4.44
2023-01-11T18:58:06.936Z,4.58
2023-01-11T19:03:28.789Z,4.53
2023-01-11T19:08:50.731Z,4.46
2023-01-11T19:14:12.670Z,4.40
2023-01-11T19:19:34.891Z,4.50
2023-01-11T19:24:56.724Z,4.39
2023-01-11T19:30:18.615Z,4.35
2023-01-11T19:35:40.559Z,4.17
2023-01-11T19:41:08.100Z,4.31
2023-01-11T19:46:32.003Z,4.19
2023-01-11T19:51:54.237Z,4.23
2023-01-11T19:57:18.407Z,4.22
2023-01-11T20:02:40.372Z,4.15
2023-01-11T20:08:02.287Z,4.20
2023-01-11T20:13:24.174Z,4.16
2023-01-11T20:18:54.173Z,3.92
2023-01-11T20:24:16.121Z,3.96
2023-01-11T20:29:37.951Z,3.77
2023-01-11T20:34:59.840Z,3.89
2023-01-11T20:40:21.658Z,3.91
2023-01-11T20:45:43.650Z,3.83
2023-01-11T20:51:05.833Z,3.86
2023-01-11T20:56:27.715Z,3.88
2023-01-11T21:01:50.446Z,3.85
2023-01-11T21:07:12.429Z,3.90
2023-01-11T21:12:34.331Z,3.98
2023-01-11T21:17:56.203Z,3.87
2023-01-11T21:23:18.068Z,4.02
2023-01-11T21:28:41.249Z,4.14
2023-01-11T21:34:04.161Z,4.14
2023-01-11T21:39:26.285Z,4.22
2023-01-11T21:44:48.170Z,4.27
2023-01-11T21:50:10.784Z,4.28
2023-01-11T21:55:33.261Z,4.13
2023-01-11T22:00:55.169Z,4.21
2023-01-11T22:06:17.811Z,4.39
2023-01-11T22:11:39.887Z,4.38
2023-01-11T22:17:04.457Z,4.57
2023-01-11T22:22:26.753Z,4.64
2023-01-11T22:27:48.648Z,4.73
2023-01-11T22:33:10.515Z,4.67
2023-01-11T22:38:32.650Z,4.78
2023-01-11T22:43:54.472Z,4.70
2023-01-11T22:49:16.297Z,4.82
2023-01-11T22:54:38.152Z,4.85
2023-01-11T23:00:00.007Z,4.85
2023-01-11T23:05:21.957Z,4.77
2023-01-11T23:10:43.993Z,4.84
2023-01-11T23:16:06.142Z,4.89
2023-01-11T23:21:28.545Z,4.84
2023-01-11T23:26:50.479Z,4.86
2023-01-11T23:32:12.391Z,4.78
2023-01-11T23:37:34.251Z,4.67
2023-01-11T23:42:58.801Z,4.66
2023-01-11T23:48:20.670Z,4.53
2023-01-11T23:53:42.556Z,4.63
2023-01-11T23:59:05.654Z,4.44
